createdAt,value
2023-01-06T00:02:18.628Z,50.35
2023-01-06T00:04:45.435Z,51.90
2023-01-06T00:07:12.136Z,49.45
2023-01-06T00:09:38.732Z,59.47
2023-01-06T00:12:07.062Z,54.35
2023-01-06T00:14:33.895Z,64.68
2023-01-06T00:17:00.586Z,55.90
2023-01-06T00:19:27.954Z,57.17
2023-01-06T00:21:54.593Z,60.53
2023-01-06T00:24:21.165Z,55.97
2023-01-06T00:26:47.890Z,62.95
2023-01-06T00:29:14.589Z,66.13
2023-01-06T00:31:41.177Z,64.13
2023-01-06T00:34:07.783Z,62.08
2023-01-06T00:36:34.355Z,62.60
2023-01-06T00:39:01.079Z,62.85
2023-01-06T00:41:46.240Z,60.60
2023-01-06T00:44:12.971Z,61.15
2023-01-06T00:46:40.350Z,66.60
2023-01-06T00:49:07.852Z,71.00
2023-01-06T00:51:40.166Z,65.40
2023-01-06T00:54:08.611Z,58.53
2023-01-06T00:56:43.121Z,67.97
2023-01-06T00:59:11.821Z,70.82
2023-01-06T01:01:39.638Z,63.05
2023-01-06T01:04:07.355Z,64.65
2023-01-06T01:06:34.717Z,64.20
2023-01-06T01:09:02.062Z,73.03
2023-01-06T01:11:47.759Z,63.92
2023-01-06T01:14:17.301Z,65.00
2023-01-06T01:16:44.174Z,68.97
2023-01-06T01:19:12.304Z,69.03
2023-01-06T01:21:39.821Z,70.65
2023-01-06T01:24:06.782Z,73.00
2023-01-06T01:26:33.362Z,75.45
2023-01-06T01:29:00.727Z,68.03
2023-01-06T01:31:27.664Z,66.95
2023-01-06T01:33:54.270Z,70.72
2023-01-06T01:36:21.028Z,64.82
2023-01-06T01:38:47.702Z,74.00
2023-01-06T01:41:17.753Z,69.00
2023-01-06T01:43:54.419Z,72.40
2023-01-06T01:46:39.944Z,72.35
2023-01-06T01:49:26.573Z,75.15
2023-01-06T01:51:55.869Z,78.93
2023-01-06T01:54:26.920Z,75.88
2023-01-06T01:56:59.495Z,72.85
2023-01-06T01:59:29.245Z,79.15
2023-01-06T02:01:55.942Z,68.80
2023-01-06T02:04:25.887Z,67.40
2023-01-06T02:06:52.655Z,74.80
2023-01-06T02:09:49.337Z,79.70
2023-01-06T02:12:15.914Z,73.00
2023-01-06T02:14:42.457Z,76.20
2023-01-06T02:17:21.255Z,78.40
2023-01-06T02:20:41.837Z,67.50
2023-01-06T02:23:23.293Z,69.18
2023-01-06T02:26:04.883Z,74.45
2023-01-06T02:29:10.361Z,69.97
2023-01-06T02:31:55.969Z,73.55
2023-01-06T02:34:41.688Z,69.57
2023-01-06T02:37:15.050Z,73.70
2023-01-06T02:40:20.566Z,77.57
2023-01-06T02:43:06.032Z,74.78
2023-01-06T02:45:43.175Z,74.07
2023-01-06T02:48:15.848Z,82.35
2023-01-06T02:50:52.641Z,76.88
2023-01-06T02:53:37.782Z,68.07
2023-01-06T02:56:04.886Z,71.10
2023-01-06T02:58:51.095Z,75.53
2023-01-06T03:01:29.448Z,65.28
2023-01-06T03:03:59.837Z,72.25
2023-01-06T03:06:30.172Z,66.80
2023-01-06T03:08:58.248Z,74.57
2023-01-06T03:11:30.729Z,66.78
2023-01-06T03:14:03.849Z,61.78
2023-01-06T03:16:30.545Z,57.95
2023-01-06T03:18:57.697Z,56.75
2023-01-06T03:21:40.972Z,53.35
2023-01-06T03:24:09.323Z,48.90
2023-01-06T03:26:37.470Z,49.10
2023-01-06T03:29:09.067Z,48.10
2023-01-06T03:31:46.247Z,45.03
2023-01-06T03:34:31.310Z,44.45
2023-01-06T03:37:19.704Z,40.47
2023-01-06T03:40:13.639Z,37.38
2023-01-06T03:43:16.499Z,39.30
2023-01-06T03:46:01.140Z,38.15
2023-01-06T03:48:38.257Z,36.28
2023-01-06T03:51:24.243Z,36.70
2023-01-06T03:54:05.938Z,34.13
2023-01-06T03:56:39.014Z,33.83
2023-01-06T03:59:11.017Z,31.80
2023-01-06T04:01:38.885Z,31.17
2023-01-06T04:04:05.567Z,30.58
2023-01-06T04:06:32.214Z,31.38
2023-01-06T04:08:58.797Z,28.35
2023-01-06T04:11:43.920Z,30.45
2023-01-06T04:14:10.540Z,25.27
2023-01-06T04:16:37.239Z,26.52
2023-01-06T04:19:04.097Z,28.30
2023-01-06T04:21:30.713Z,25.80
2023-01-06T04:23:57.330Z,29.02
2023-01-06T04:26:24.032Z,28.02
2023-01-06T04:28:51.053Z,22.52
2023-01-06T04:31:18.170Z,26.08
2023-01-06T04:33:44.792Z,26.30
2023-01-06T04:36:11.475Z,24.85
2023-01-06T04:38:38.006Z,20.52
2023-01-06T04:41:04.788Z,24.40
2023-01-06T04:43:31.407Z,19.98
2023-01-06T04:45:59.302Z,23.10
2023-01-06T04:48:26.550Z,18.45
2023-01-06T04:51:11.099Z,21.05
2023-01-06T04:53:39.970Z,18.20
2023-01-06T04:56:09.443Z,17.67
2023-01-06T04:58:37.036Z,18.80
2023-01-06T05:01:10.636Z,19.73
2023-01-06T05:03:38.325Z,17.80
2023-01-06T05:06:10.081Z,15.25
2023-01-06T05:08:38.171Z,17.17
2023-01-06T05:11:17.091Z,16.65
2023-01-06T05:13:44.262Z,18.67
2023-01-06T05:16:20.295Z,17.83
2023-01-06T05:18:47.151Z,17.08
2023-01-06T05:21:13.848Z,18.58
2023-01-06T05:23:40.746Z,16.08
2023-01-06T05:26:09.156Z,20.40
2023-01-06T05:28:35.746Z,19.17
2023-01-06T05:31:04.233Z,17.40
2023-01-06T05:33:34.075Z,21.75
2023-01-06T05:36:02.621Z,19.02
2023-01-06T05:38:29.392Z,18.58
2023-01-06T05:40:56.908Z,20.70
2023-01-06T05:43:25.033Z,18.02
2023-01-06T05:45:52.362Z,16.63
2023-01-06T05:48:19.750Z,17.30
2023-01-06T05:50:46.678Z,16.75
2023-01-06T05:53:13.249Z,19.42
2023-01-06T05:55:39.813Z,17.10
2023-01-06T05:58:06.381Z,16.48
2023-01-06T06:00:32.940Z,16.45
2023-01-06T06:02:59.476Z,14.27
2023-01-06T06:05:26.086Z,17.13
2023-01-06T06:07:56.441Z,16.08
2023-01-06T06:10:23.890Z,15.90
2023-01-06T06:12:53.509Z,17.80
2023-01-06T06:15:20.328Z,21.17
2023-01-06T06:17:47.045Z,17.83
2023-01-06T06:20:13.638Z,15.15
2023-01-06T06:22:40.203Z,18.55
2023-01-06T06:25:07.115Z,16.30
2023-01-06T06:27:33.777Z,14.23
2023-01-06T06:30:00.420Z,15.98
2023-01-06T06:32:30.832Z,15.70
2023-01-06T06:34:58.378Z,14.35
2023-01-06T06:37:25.126Z,13.63
2023-01-06T06:39:51.662Z,15.10
2023-01-06T06:42:18.339Z,12.80
2023-01-06T06:44:44.917Z,12.23
2023-01-06T06:47:11.697Z,11.60
2023-01-06T06:49:38.445Z,11.68
2023-01-06T06:52:05.093Z,11.98
2023-01-06T06:54:31.631Z,12.25
2023-01-06T06:56:58.348Z,12.07
2023-01-06T06:59:25.157Z,13.02
2023-01-06T07:01:51.942Z,15.32
2023-01-06T07:04:18.727Z,10.88
2023-01-06T07:06:45.272Z,10.82
2023-01-06T07:09:11.825Z,11.90
2023-01-06T07:11:38.419Z,12.13
2023-01-06T07:14:04.965Z,9.13
2023-01-06T07:16:31.726Z,10.35
2023-01-06T07:18:58.405Z,8.57
2023-01-06T07:21:25.131Z,9.38
2023-01-06T07:23:51.750Z,9.70
2023-01-06T07:26:18.413Z,6.72
2023-01-06T07:28:45.238Z,11.90
2023-01-06T07:31:12.080Z,7.03
2023-01-06T07:33:38.673Z,7.57
2023-01-06T07:36:05.676Z,7.38
2023-01-06T07:38:32.234Z,6.15
2023-01-06T07:41:00.271Z,5.53
2023-01-06T07:43:26.952Z,6.60
2023-01-06T07:45:53.834Z,5.43
2023-01-06T07:48:20.533Z,4.50
2023-01-06T07:50:47.131Z,3.85
2023-01-06T07:53:13.765Z,5.72
2023-01-06T07:55:40.440Z,5.65
2023-01-06T07:58:08.518Z,5.97
2023-01-06T08:00:35.947Z,4.03
2023-01-06T08:03:07.295Z,6.35
2023-01-06T08:05:41.810Z,5.35
2023-01-06T08:08:09.485Z,4.00
2023-01-06T08:10:39.985Z,3.88
2023-01-06T08:13:06.775Z,3.33
2023-01-06T08:15:33.502Z,4.18
2023-01-06T08:18:00.265Z,4.32
2023-01-06T08:20:26.978Z,4.38
2023-01-06T08:22:53.649Z,3.95
2023-01-06T08:25:20.574Z,5.05
2023-01-06T08:27:47.151Z,3.40
2023-01-06T08:30:13.934Z,3.70
2023-01-06T08:32:40.540Z,3.28
2023-01-06T08:35:07.431Z,2.72
2023-01-06T08:37:34.109Z,4.95
2023-01-06T08:40:00.691Z,5.90
2023-01-06T08:42:27.318Z,4.10
2023-01-06T08:44:54.058Z,5.53
2023-01-06T08:47:21.096Z,3.17
2023-01-06T08:49:47.888Z,3.78
2023-01-06T08:52:14.749Z,2.88
2023-01-06T08:54:41.409Z,2.58
2023-01-06T08:57:09.071Z,3.67
2023-01-06T08:59:35.914Z,5.30
2023-01-06T09:02:02.690Z,4.25
2023-01-06T09:04:29.280Z,4.70
2023-01-06T09:06:57.567Z,5.65
2023-01-06T09:09:24.269Z,7.28
2023-01-06T09:11:50.933Z,4.03
2023-01-06T09:14:17.527Z,6.88
2023-01-06T09:16:44.185Z,5.93
2023-01-06T09:19:10.750Z,4.75
2023-01-06T09:21:37.830Z,5.05
2023-01-06T09:24:04.578Z,4.93
2023-01-06T09:26:31.262Z,4.68
2023-01-06T09:28:58.149Z,7.15
2023-01-06T09:31:25.164Z,4.80
2023-01-06T09:33:52.004Z,4.85
2023-01-06T09:36:18.645Z,5.88
2023-01-06T09:38:45.650Z,7.40
2023-01-06T09:41:40.877Z,5.53
2023-01-06T09:44:40.104Z,4.28
2023-01-06T09:47:11.274Z,5.75
2023-01-06T09:49:52.043Z,3.83
2023-01-06T09:52:59.298Z,3.85
2023-01-06T09:55:48.094Z,5.05
2023-01-06T09:58:18.661Z,3.33
2023-01-06T10:00:51.253Z,3.53
2023-01-06T10:03:22.120Z,3.28
2023-01-06T10:06:10.620Z,4.53
2023-01-06T10:08:55.737Z,3.08
2023-01-06T10:11:33.316Z,3.65
2023-01-06T10:14:38.398Z,3.38
2023-01-06T10:17:30.744Z,2.30
2023-01-06T10:20:39.409Z,1.65
2023-01-06T10:23:28.460Z,2.35
2023-01-06T10:25:59.562Z,5.97
2023-01-06T10:28:30.385Z,2.75
2023-01-06T10:31:04.071Z,2.20
2023-01-06T10:33:41.696Z,11.38
2023-01-06T10:36:13.897Z,9.48
2023-01-06T10:38:46.634Z,9.23
2023-01-06T10:41:46.589Z,3.70
2023-01-06T10:44:13.920Z,3.17
2023-01-06T10:46:41.855Z,1.70
2023-01-06T10:49:19.795Z,6.35
2023-01-06T10:51:53.743Z,8.57
2023-01-06T10:54:27.925Z,7.18
2023-01-06T10:56:59.885Z,6.38
2023-01-06T10:59:26.456Z,3.22
2023-01-06T11:01:58.150Z,7.20
2023-01-06T11:04:26.675Z,2.22
2023-01-06T11:06:59.634Z,2.58
2023-01-06T11:09:40.023Z,2.17
2023-01-06T11:12:14.447Z,1.67
2023-01-06T11:14:41.705Z,2.80
2023-01-06T11:17:14.300Z,1.92
2023-01-06T11:19:45.943Z,1.67
2023-01-06T11:22:35.962Z,0.95
2023-01-06T11:25:04.266Z,3.70
2023-01-06T11:27:30.850Z,3.55
2023-01-06T11:29:57.508Z,2.42
2023-01-06T11:32:29.497Z,1.15
2023-01-06T11:35:04.354Z,4.80
2023-01-06T11:37:42.489Z,3.08
2023-01-06T11:40:29.991Z,3.50
2023-01-06T11:42:59.472Z,1.80
2023-01-06T11:45:37.448Z,1.92
2023-01-06T11:48:18.289Z,2.35
2023-01-06T11:50:53.917Z,1.98
2023-01-06T11:53:21.568Z,3.72
2023-01-06T11:56:03.483Z,2.72
2023-01-06T11:58:33.045Z,3.42
2023-01-06T12:01:06.570Z,5.50
2023-01-06T12:03:41.519Z,3.38
2023-01-06T12:06:14.354Z,3.15
2023-01-06T12:08:53.299Z,3.50
2023-01-06T12:11:30.533Z,1.92
2023-01-06T12:14:13.045Z,2.65
2023-01-06T12:16:49.462Z,3.20
2023-01-06T12:19:39.327Z,3.75
2023-01-06T12:22:17.687Z,3.10
2023-01-06T12:24:46.105Z,1.98
2023-01-06T12:27:23.405Z,4.72
2023-01-06T12:29:51.778Z,5.15
2023-01-06T12:32:22.516Z,3.15
2023-01-06T12:34:51.733Z,2.75
2023-01-06T12:37:47.551Z,3.22
2023-01-06T12:40:29.595Z,0.95
2023-01-06T12:43:18.485Z,4.32
2023-01-06T12:45:57.686Z,3.20
2023-01-06T12:48:30.926Z,5.45
2023-01-06T12:51:11.153Z,2.67
2023-01-06T12:53:43.310Z,3.22
2023-01-06T12:56:49.864Z,3.20
2023-01-06T12:59:21.098Z,8.32
2023-01-06T13:02:03.761Z,5.70
2023-01-06T13:05:13.302Z,16.02
2023-01-06T13:08:05.937Z,4.68
2023-01-06T13:10:38.338Z,4.68
2023-01-06T13:13:30.066Z,2.30
2023-01-06T13:15:59.852Z,4.45
2023-01-06T13:18:40.190Z,3.80
2023-01-06T13:21:18.113Z,4.18
2023-01-06T13:23:56.700Z,3.70
2023-01-06T13:26:52.425Z,4.43
2023-01-06T13:29:56.035Z,5.20
2023-01-06T13:32:39.669Z,4.38
2023-01-06T13:35:21.606Z,2.55
2023-01-06T13:38:10.781Z,2.17
2023-01-06T13:40:42.389Z,3.78
2023-01-06T13:43:24.264Z,4.25
2023-01-06T13:50:08.228Z,5.63
2023-01-06T13:52:35.865Z,4.75
2023-01-06T13:55:21.780Z,4.32
2023-01-06T13:57:48.786Z,5.28
2023-01-06T14:00:32.056Z,4.43
2023-01-06T14:03:01.360Z,1.95
2023-01-06T14:05:31.103Z,2.65
2023-01-06T14:08:03.641Z,3.67
2023-01-06T14:10:37.484Z,4.13
2023-01-06T14:13:17.528Z,4.30
2023-01-06T14:16:03.800Z,5.05
2023-01-06T14:18:36.671Z,5.70
2023-01-06T14:21:14.197Z,3.00
2023-01-06T14:24:03.009Z,2.78
2023-01-06T14:26:55.641Z,7.13
2023-01-06T14:29:40.938Z,5.68
2023-01-06T14:32:15.174Z,6.00
2023-01-06T14:34:53.159Z,3.83
2023-01-06T14:37:25.747Z,5.95
2023-01-06T14:39:55.171Z,3.13
2023-01-06T14:42:42.538Z,4.63
2023-01-06T14:45:23.035Z,5.10
2023-01-06T14:48:11.957Z,2.63
2023-01-06T14:50:51.809Z,5.25
2023-01-06T14:53:39.467Z,6.68
2023-01-06T14:56:07.215Z,5.78
2023-01-06T14:58:38.503Z,6.82
2023-01-06T15:01:25.123Z,4.55
2023-01-06T15:03:58.082Z,5.28
2023-01-06T15:06:26.280Z,6.13
2023-01-06T15:08:53.161Z,6.30
2023-01-06T15:11:25.882Z,5.30
2023-01-06T15:13:52.765Z,6.40
2023-01-06T15:16:36.866Z,5.78
2023-01-06T15:19:08.687Z,2.85
2023-01-06T15:21:44.810Z,5.82
2023-01-06T15:24:20.548Z,9.55
2023-01-06T15:26:47.860Z,8.32
2023-01-06T15:29:17.814Z,6.68
2023-01-06T15:31:46.798Z,4.43
2023-01-06T15:34:45.781Z,5.68
2023-01-06T15:37:25.926Z,5.45
2023-01-06T15:39:53.551Z,7.78
2023-01-06T15:42:25.115Z,7.55
2023-01-06T15:44:59.989Z,5.65
2023-01-06T15:47:32.176Z,5.90
2023-01-06T15:50:03.408Z,10.63
2023-01-06T15:52:48.963Z,10.25
2023-01-06T15:55:32.013Z,5.70
2023-01-06T15:58:17.683Z,6.80
2023-01-06T16:00:55.250Z,7.85
2023-01-06T16:03:26.068Z,6.18
2023-01-06T16:06:11.218Z,6.78
2023-01-06T16:08:38.877Z,8.35
2023-01-06T16:11:15.986Z,6.22
2023-01-06T16:14:04.545Z,8.98
2023-01-06T16:16:35.074Z,4.72
2023-01-06T16:19:19.928Z,5.43
2023-01-06T16:21:51.502Z,10.55
2023-01-06T16:24:20.936Z,23.52
2023-01-06T16:27:02.585Z,18.50
2023-01-06T16:29:37.454Z,13.15
2023-01-06T16:32:34.081Z,7.40
2023-01-06T16:35:11.664Z,10.68
2023-01-06T16:37:38.811Z,8.35
2023-01-06T16:40:06.167Z,6.43
2023-01-06T16:42:42.637Z,7.25
2023-01-06T16:45:12.422Z,8.27
2023-01-06T16:47:40.596Z,7.28
2023-01-06T16:50:33.435Z,7.38
2023-01-06T16:53:20.734Z,7.35
2023-01-06T16:55:53.147Z,10.13
2023-01-06T16:58:22.631Z,9.20
2023-01-06T17:00:52.006Z,8.25
2023-01-06T17:03:28.697Z,5.65
2023-01-06T17:05:55.892Z,6.53
2023-01-06T17:08:34.825Z,8.40
2023-01-06T17:11:06.620Z,8.05
2023-01-06T17:13:36.278Z,7.97
2023-01-06T17:16:12.701Z,10.20
2023-01-06T17:18:50.456Z,6.78
2023-01-06T17:21:24.522Z,8.50
2023-01-06T17:24:13.353Z,7.72
2023-01-06T17:26:44.389Z,10.02
2023-01-06T17:29:14.669Z,7.35
2023-01-06T17:34:36.071Z,13.55
2023-01-06T17:37:11.297Z,5.00
2023-01-06T17:39:41.310Z,8.20
2023-01-06T17:42:11.231Z,7.60
2023-01-06T17:44:52.019Z,7.18
2023-01-06T17:47:18.756Z,6.30
2023-01-06T17:49:55.335Z,6.35
2023-01-06T17:52:36.058Z,9.65
2023-01-06T17:55:43.916Z,7.72
2023-01-06T17:58:16.657Z,13.40
2023-01-06T18:05:35.577Z,6.80
2023-01-06T18:08:05.079Z,4.70
2023-01-06T18:10:33.641Z,9.20
2023-01-06T18:13:18.607Z,6.65
2023-01-06T18:15:52.248Z,7.93
2023-01-06T18:18:22.975Z,11.18
2023-01-06T18:21:00.374Z,12.00
2023-01-06T18:23:28.579Z,9.57
2023-01-06T18:26:01.857Z,8.68
2023-01-06T18:28:29.718Z,13.02
2023-01-06T18:30:59.134Z,9.45
2023-01-06T18:33:26.313Z,7.55
2023-01-06T18:35:57.443Z,8.25
2023-01-06T18:38:30.126Z,7.70
2023-01-06T18:40:56.950Z,8.63
2023-01-06T18:43:29.947Z,5.88
2023-01-06T18:46:12.267Z,7.22
2023-01-06T18:48:39.562Z,8.63
2023-01-06T18:51:22.264Z,7.22
2023-01-06T18:53:51.310Z,6.93
2023-01-06T18:56:22.182Z,8.88
2023-01-06T18:58:54.592Z,7.55
2023-01-06T19:01:43.602Z,10.10
2023-01-06T19:04:28.794Z,6.80
2023-01-06T19:07:23.823Z,9.23
2023-01-06T19:09:50.594Z,7.63
2023-01-06T19:12:23.133Z,6.28
2023-01-06T19:14:52.459Z,7.53
2023-01-06T19:17:46.412Z,9.48
2023-01-06T19:20:29.035Z,6.35
2023-01-06T19:22:57.013Z,13.18
2023-01-06T19:25:37.546Z,8.77
2023-01-06T19:28:16.714Z,6.72
2023-01-06T19:30:44.614Z,9.27
2023-01-06T19:33:22.271Z,6.45
2023-01-06T19:35:50.125Z,9.10
2023-01-06T19:38:23.639Z,9.52
2023-01-06T19:40:50.742Z,7.90
2023-01-06T19:43:19.580Z,11.48
2023-01-06T19:45:46.383Z,18.35
2023-01-06T19:48:38.400Z,12.75
2023-01-06T19:51:29.962Z,9.68
2023-01-06T19:53:58.682Z,13.45
2023-01-06T19:56:38.736Z,21.42
2023-01-06T19:59:26.459Z,45.55
2023-01-06T20:02:07.992Z,36.28
2023-01-06T20:04:35.645Z,9.93
2023-01-06T20:07:03.451Z,18.50
2023-01-06T20:09:33.462Z,24.95
2023-01-06T20:12:00.988Z,11.43
2023-01-06T20:14:27.734Z,10.07
2023-01-06T20:16:54.556Z,14.90
2023-01-06T20:19:21.673Z,7.45
2023-01-06T20:21:48.648Z,7.90
2023-01-06T20:24:15.479Z,6.07
2023-01-06T20:26:42.511Z,17.58
2023-01-06T20:29:09.303Z,8.55
2023-01-06T20:31:36.039Z,10.77
2023-01-06T20:34:02.895Z,11.60
2023-01-06T20:36:29.591Z,11.25
2023-01-06T20:38:56.325Z,42.63
2023-01-06T20:41:23.063Z,89.90
2023-01-06T20:43:49.717Z,21.95
2023-01-06T20:46:16.541Z,85.65
2023-01-06T20:48:43.346Z,82.93
2023-01-06T20:51:10.271Z,26.58
2023-01-06T20:53:37.268Z,68.90
2023-01-06T20:56:04.425Z,67.20
2023-01-06T20:58:31.277Z,56.35
2023-01-06T21:00:58.013Z,94.25
2023-01-06T21:03:24.639Z,54.80
2023-01-06T21:05:51.424Z,53.53
2023-01-06T21:08:18.185Z,53.17
2023-01-06T21:10:44.992Z,15.10
2023-01-06T21:13:11.675Z,39.45
2023-01-06T21:15:38.398Z,23.02
2023-01-06T21:18:05.262Z,32.67
2023-01-06T21:20:32.086Z,34.25
2023-01-06T21:22:58.737Z,17.38
2023-01-06T21:25:25.646Z,14.18
2023-01-06T21:27:52.362Z,12.85
2023-01-06T21:30:19.883Z,9.20
2023-01-06T21:32:46.601Z,11.13
2023-01-06T21:35:13.334Z,21.40
2023-01-06T21:37:40.021Z,11.93
2023-01-06T21:40:08.449Z,11.80
2023-01-06T21:42:54.337Z,12.32
2023-01-06T21:45:21.156Z,11.70
2023-01-06T21:47:48.302Z,14.75
2023-01-06T21:50:15.133Z,9.23
2023-01-06T21:52:44.748Z,18.88
2023-01-06T21:55:12.795Z,22.08
2023-01-06T21:57:39.766Z,13.88
2023-01-06T22:00:07.822Z,21.83
2023-01-06T22:02:34.711Z,20.95
2023-01-06T22:05:01.521Z,21.95
2023-01-06T22:07:29.273Z,50.58
2023-01-06T22:09:57.167Z,23.48
2023-01-06T22:12:24.354Z,11.80
2023-01-06T22:14:53.269Z,13.68
2023-01-06T22:17:21.218Z,12.23
2023-01-06T22:19:49.851Z,11.77
2023-01-06T22:22:16.624Z,12.50
2023-01-06T22:24:44.282Z,13.30
2023-01-06T22:27:11.083Z,15.57
2023-01-06T22:29:37.695Z,15.43
2023-01-06T22:32:05.900Z,12.68
2023-01-06T22:34:33.693Z,21.33
2023-01-06T22:37:00.480Z,17.63
2023-01-06T22:39:27.172Z,20.35
2023-01-06T22:41:54.457Z,16.83
2023-01-06T22:44:21.938Z,30.88
2023-01-06T22:46:48.659Z,20.02
2023-01-06T22:49:15.399Z,20.07
2023-01-06T22:51:44.548Z,17.63
2023-01-06T22:54:11.292Z,22.17
2023-01-06T22:56:38.062Z,19.53
2023-01-06T22:59:04.743Z,26.27
2023-01-06T23:01:31.707Z,24.53
2023-01-06T23:04:00.104Z,23.45
2023-01-06T23:06:26.869Z,27.90
2023-01-06T23:09:00.231Z,27.27
2023-01-06T23:11:28.691Z,31.90
2023-01-06T23:13:57.062Z,25.52
2023-01-06T23:16:26.275Z,30.58
2023-01-06T23:18:53.514Z,28.13
2023-01-06T23:21:23.458Z,29.70
2023-01-06T23:23:51.573Z,25.85
2023-01-06T23:26:29.263Z,28.85
2023-01-06T23:28:57.018Z,30.10
2023-01-06T23:31:29.840Z,32.88
2023-01-06T23:33:58.692Z,30.17
2023-01-06T23:36:27.423Z,36.83
2023-01-06T23:38:55.968Z,30.98
2023-01-06T23:41:25.180Z,34.03
2023-01-06T23:43:52.911Z,34.50
2023-01-06T23:46:22.694Z,36.80
2023-01-06T23:48:49.794Z,41.17
2023-01-06T23:51:17.216Z,41.08
2023-01-06T23:53:44.942Z,41.42
2023-01-06T23:56:14.654Z,38.78
2023-01-06T23:58:42.935Z,39.33
